Time;durP1;ratioP1;P1;durP2;ratioP2;P2;SDS_P1;SDS_P2;PMS_P1;PMS_P2;Temp;Humidity;BMP_temperature;BMP_pressure;BME280_temperature;BME280_humidity;BME280_pressure;Samples;Min_cycle;Max_cycle;Signal;HPM_P1;HPM_P2
2023/09/06 00:05:09;;;;;;;13.85;6.05;;;;;;;16.93;63.24;99794.56;4979392;23;20145;-93
2023/09/06 00:15:32;;;;;;;15.45;6.30;;;;;;;16.83;63.57;99781.19;4900134;29;20055;-91
2023/09/06 00:18:24;;;;;;;11.35;6.30;;;;;;;16.79;63.99;99785.81;4887894;29;20053;-91
2023/09/06 00:20:50;;;;;;;16.48;6.82;;;;;;;16.32;64.00;99714.38;4950756;23;20055;-91
2023/09/06 00:27:23;;;;;;;14.52;6.60;;;;;;;16.67;64.48;99781.03;5111952;23;20061;31
2023/09/06 00:34:26;;;;;;;15.25;7.45;;;;;;;16.70;64.75;99772.06;4925108;23;20212;-91
2023/09/06 00:37:30;;;;;;;13.43;7.22;;;;;;;16.63;64.75;99772.63;5065801;23;20038;-90
2023/09/06 00:41:20;;;;;;;14.38;6.53;;;;;;;16.58;64.96;99770.06;4970722;23;20527;-94
2023/09/06 00:47:04;;;;;;;13.38;6.90;;;;;;;16.14;65.63;99725.59;4943617;23;20756;-93
2023/09/06 00:49:52;;;;;;;11.32;6.55;;;;;;;16.47;65.41;99765.34;4964997;23;20058;-92
2023/09/06 00:53:39;;;;;;;20.55;6.03;;;;;;;16.34;65.97;99767.25;4999694;23;20117;-95
2023/09/06 01:08:47;;;;;;;15.35;6.55;;;;;;;16.01;67.26;99737.72;5010571;23;20041;-93
2023/09/06 01:18:54;;;;;;;13.65;6.65;;;;;;;15.92;67.64;99728.72;4970765;23;20049;-92
2023/09/06 01:21:58;;;;;;;15.32;6.85;;;;;;;15.93;68.01;99738.63;4960721;23;20729;-94
2023/09/06 01:37:04;;;;;;;12.27;6.60;;;;;;;15.84;68.49;99715.84;4980707;23;20362;-91
2023/09/06 01:48:11;;;;;;;11.60;6.82;;;;;;;15.48;69.59;99703.47;5008598;23;20066;-90
2023/09/06 01:51:09;;;;;;;18.77;6.93;;;;;;;15.44;69.92;99697.81;4949970;23;20150;-93
2023/09/06 01:57:57;;;;;;;13.20;6.82;;;;;;;15.06;70.66;99673.13;4985714;23;20050;-91
2023/09/06 02:01:04;;;;;;;10.85;6.38;;;;;;;15.15;71.13;99692.34;4913281;23;20069;-91
2023/09/06 02:03:40;;;;;;;19.08;6.60;;;;;;;15.12;71.25;99701.28;4919882;23;20055;-91
2023/09/06 02:06:25;;;;;;;14.57;7.03;;;;;;;15.07;71.56;99693.22;4912272;23;20061;-90
2023/09/06 02:26:37;;;;;;;14.00;6.80;;;;;;;14.85;72.88;99680.56;4960196;23;20683;-94
2023/09/06 02:29:31;;;;;;;13.18;6.80;;;;;;;14.78;72.77;99659.88;4957697;23;20050;-91
2023/09/06 02:39:42;;;;;;;10.27;6.50;;;;;;;14.99;72.96;99667.34;5017258;23;20067;-93
2023/09/06 02:56:57;;;;;;;11.48;5.68;;;;;;;15.29;71.49;99662.59;5301465;23;20435;-93
2023/09/06 03:02:59;;;;;;;10.77;5.82;;;;;;;15.02;71.13;99603.34;5231616;23;20058;-90
2023/09/06 03:33:13;;;;;;;26.00;5.65;;;;;;;15.31;68.57;99541.09;5170807;23;20428;-92
2023/09/06 03:36:35;;;;;;;12.75;5.55;;;;;;;15.83;68.67;99612.22;4938772;28;20129;-89
2023/09/06 03:39:12;;;;;;;14.73;5.45;;;;;;;15.57;68.65;99577.44;4971811;23;20038;-96
2023/09/06 03:41:42;;;;;;;12.65;6.18;;;;;;;15.39;69.01;99546.50;4995604;23;20054;-93
2023/09/06 03:48:30;;;;;;;21.77;6.15;;;;;;;15.71;68.70;99608.28;5010407;23;20463;-94
2023/09/06 03:51:57;;;;;;;13.90;5.85;;;;;;;15.76;68.48;99610.03;4940763;29;20043;-94
2023/09/06 03:58:41;;;;;;;35.83;11.32;;;;;;;15.87;68.48;99602.13;4924570;29;20058;-93
2023/09/06 04:01:15;;;;;;;19.15;9.55;;;;;;;15.88;68.43;99600.97;4937836;23;20071;-88
2023/09/06 04:04:08;;;;;;;15.07;6.95;;;;;;;15.94;67.97;99585.81;4940311;29;20046;-89
2023/09/06 04:07:15;;;;;;;14.77;7.05;;;;;;;15.50;67.97;99497.28;4945862;29;20178;-89
2023/09/06 04:09:48;;;;;;;14.45;7.00;;;;;;;15.59;67.79;99502.69;4928021;29;20046;-88
2023/09/06 04:12:17;;;;;;;11.85;6.90;;;;;;;16.02;67.84;99551.81;4932428;29;20059;-88
2023/09/06 04:15:52;;;;;;;12.60;6.85;;;;;;;16.34;67.78;99571.38;4937452;29;20084;-88
2023/09/06 04:21:37;;;;;;;10.55;5.60;;;;;;;16.18;66.31;99530.69;5024250;23;20058;-88
2023/09/06 04:24:07;;;;;;;13.90;6.53;;;;;;;16.34;66.64;99543.78;5003708;28;20034;-87
2023/09/06 04:27:56;;;;;;;10.55;6.15;;;;;;;16.63;66.31;99559.28;5019558;28;20021;-87
2023/09/06 04:30:40;;;;;;;19.27;7.00;;;;;;;16.37;66.39;99521.03;4989829;28;20488;-90
2023/09/06 04:33:32;;;;;;;13.00;6.22;;;;;;;16.63;66.26;99553.75;4954676;28;20110;-84
2023/09/06 04:36:18;;;;;;;22.50;7.30;;;;;;;16.50;66.05;99530.09;4995555;28;20098;-93
2023/09/06 04:39:33;;;;;;;24.65;6.25;;;;;;;16.59;66.10;99550.09;4992172;28;20053;-89
2023/09/06 04:42:00;;;;;;;15.38;6.50;;;;;;;16.15;65.88;99467.13;4985618;28;20097;-90
2023/09/06 04:45:30;;;;;;;13.75;6.85;;;;;;;16.83;66.20;99543.75;4989397;28;20042;-93
2023/09/06 04:48:18;;;;;;;13.55;5.78;;;;;;;16.86;65.29;99543.84;4975070;28;20054;-87
2023/09/06 04:51:09;;;;;;;20.33;6.95;;;;;;;16.83;64.64;99510.63;4968673;28;20051;-87
2023/09/06 04:53:36;;;;;;;18.92;7.88;;;;;;;16.73;64.68;99494.50;4962958;28;20058;-87
2023/09/06 04:56:04;;;;;;;;;;;;;;;17.05;65.05;99550.69;4955623;28;20073;-87
2023/09/06 04:58:37;;;;;;;16.00;6.32;;;;;;;16.67;64.52;99491.97;4987782;28;19926;-87
2023/09/06 05:04:04;;;;;;;14.70;5.63;;;;;;;16.76;64.84;99502.94;4992546;28;20107;-89
2023/09/06 05:06:56;;;;;;;13.90;6.30;;;;;;;17.11;65.50;99549.28;4955189;28;20035;-89
2023/09/06 05:09:26;;;;;;;13.15;5.70;;;;;;;16.61;64.64;99473.25;4989378;28;20098;-86
2023/09/06 05:12:21;;;;;;;17.65;5.78;;;;;;;17.09;64.95;99541.34;4958240;28;20038;-88
2023/09/06 05:14:50;;;;;;;19.08;5.97;;;;;;;16.96;64.70;99537.03;4981516;28;20038;-88
2023/09/06 05:17:16;;;;;;;22.52;5.55;;;;;;;16.93;64.93;99525.88;4953859;28;20362;-87
2023/09/06 05:23:48;;;;;;;11.95;5.35;;;;;;;17.17;63.92;99502.88;4962292;28;20047;-88
2023/09/06 05:26:40;;;;;;;38.65;6.53;;;;;;;17.54;64.23;99556.81;4966819;28;20508;-88
2023/09/06 05:29:32;;;;;;;17.08;5.28;;;;;;;17.38;63.63;99525.56;4900667;29;20127;-88
2023/09/06 05:31:59;;;;;;;16.23;5.85;;;;;;;17.32;64.24;99508.44;4885138;29;20280;-89
2023/09/06 05:34:29;;;;;;;16.33;6.38;;;;;;;17.37;65.11;99508.19;4887585;29;20049;-88
2023/09/06 05:36:56;;;;;;;26.80;6.47;;;;;;;17.49;65.08;99532.19;4855816;29;20612;-88
2023/09/06 05:39:22;;;;;;;12.18;6.32;;;;;;;17.57;65.46;99531.22;4887300;29;20719;-88
2023/09/06 05:41:50;;;;;;;20.77;6.53;;;;;;;17.53;65.32;99518.47;4885119;29;20506;-90
2023/09/06 05:44:16;;;;;;;13.25;5.97;;;;;;;17.46;65.36;99504.47;4868122;29;20048;-89
2023/09/06 05:46:43;;;;;;;18.50;5.82;;;;;;;17.58;65.31;99521.78;4883881;29;20052;-89
2023/09/06 05:49:12;;;;;;;15.75;6.22;;;;;;;17.62;65.54;99527.41;4869874;29;20084;-90
2023/09/06 05:52:15;;;;;;;22.88;6.00;;;;;;;18.39;68.69;99523.38;4890784;29;20072;-91
2023/09/06 05:55:19;;;;;;;12.25;5.78;;;;;;;18.75;63.47;99519.47;4896146;29;20183;-89
2023/09/06 05:57:45;;;;;;;13.15;5.20;;;;;;;18.93;62.98;99506.78;4863525;29;20069;-90
2023/09/06 06:00:15;;;;;;;21.23;6.00;;;;;;;18.99;61.89;99512.84;4888423;29;20048;-88
2023/09/06 06:02:57;;;;;;;18.42;5.82;;;;;;;19.05;61.46;99499.50;4953254;23;20058;-85
2023/09/06 06:05:27;;;;;;;18.30;5.72;;;;;;;19.31;61.68;99499.63;4981530;28;20142;-87
2023/09/06 06:07:57;;;;;;;11.88;5.70;;;;;;;19.39;60.34;99495.00;4936142;28;20070;-91
2023/09/06 06:10:29;;;;;;;13.82;5.25;;;;;;;19.81;58.73;99458.94;4948944;28;20042;-89
2023/09/06 06:13:23;;;;;;;22.52;5.40;;;;;;;19.73;60.04;99462.75;4969277;28;20241;-89
2023/09/06 06:16:39;;;;;;;10.95;5.43;;;;;;;19.73;59.27;99498.81;4987599;28;20504;-91
2023/09/06 06:19:05;;;;;;;10.20;5.00;;;;;;;19.48;60.14;99481.72;4954306;28;20043;-90
2023/09/06 06:21:31;;;;;;;19.02;6.05;;;;;;;19.29;60.78;99457.63;4941509;28;20042;-89
2023/09/06 06:23:58;;;;;;;27.65;6.20;;;;;;;19.45;61.10;99477.72;4959563;28;20497;-91
2023/09/06 06:26:37;;;;;;;8.43;4.80;;;;;;;19.52;60.88;99438.22;4958304;28;20527;-88
2023/09/06 06:29:04;;;;;;;27.08;5.60;;;;;;;20.31;58.31;99489.44;4959917;28;20034;-88
2023/09/06 06:31:30;;;;;;;10.85;4.78;;;;;;;20.31;58.73;99454.16;4941026;28;20206;-89
2023/09/06 06:33:59;;;;;;;12.93;4.63;;;;;;;20.94;57.16;99490.72;4958123;28;20121;-89
2023/09/06 06:36:26;;;;;;;10.02;4.57;;;;;;;21.05;55.44;99464.63;4990479;28;20791;-89
2023/09/06 06:38:52;;;;;;;15.93;5.05;;;;;;;20.97;56.31;99462.97;4950649;28;20595;-89
2023/09/06 06:41:22;;;;;;;11.82;4.38;;;;;;;21.11;56.23;99467.88;4990643;23;20058;-89
2023/09/06 06:43:52;;;;;;;9.23;4.72;;;;;;;21.23;55.76;99452.94;4960113;28;20057;-89
2023/09/06 06:46:36;;;;;;;19.08;5.45;;;;;;;21.58;55.01;99441.34;4981678;28;20038;-89
2023/09/06 06:49:04;;;;;;;14.13;5.20;;;;;;;21.73;54.46;99448.66;4958574;28;20048;-89
2023/09/06 06:51:38;;;;;;;9.27;4.22;;;;;;;21.78;54.56;99439.94;4951176;28;20046;-89
2023/09/06 06:55:10;;;;;;;15.45;4.60;;;;;;;22.10;53.49;99464.44;4966223;28;20078;-88
2023/09/06 06:57:37;;;;;;;18.88;5.22;;;;;;;21.69;54.57;99463.69;4981090;28;20544;-87
2023/09/06 07:00:31;;;;;;;13.75;5.15;;;;;;;21.82;53.87;99442.78;4945213;29;20050;-85
2023/09/06 07:02:59;;;;;;;13.73;5.25;;;;;;;21.95;54.39;99460.75;4964320;29;20109;-88
2023/09/06 07:05:27;;;;;;;23.23;5.32;;;;;;;21.81;55.03;99460.63;4932723;29;20053;-88
2023/09/06 07:08:18;;;;;;;12.93;5.47;;;;;;;21.50;55.25;99426.59;4961263;29;20051;-88
2023/09/06 07:10:44;;;;;;;14.27;4.97;;;;;;;21.53;55.00;99384.09;4940886;29;20047;-86
2023/09/06 07:13:30;;;;;;;;;;;;;;;22.24;54.40;99456.19;4903071;29;20072;-85
2023/09/06 07:15:56;;;;;;;20.77;5.82;;;;;;;22.41;53.99;99459.47;4885818;29;20507;-86
2023/09/06 07:18:23;;;;;;;22.83;5.43;;;;;;;22.59;53.11;99456.81;4919236;29;20609;-87
2023/09/06 07:20:49;;;;;;;16.88;5.55;;;;;;;22.23;53.80;99442.69;4920739;29;20035;-86
2023/09/06 07:23:20;;;;;;;34.63;5.85;;;;;;;22.01;54.45;99425.78;4923590;29;20545;-85
2023/09/06 07:25:49;;;;;;;31.38;5.82;;;;;;;21.99;54.45;99419.81;4928116;29;20051;-89
2023/09/06 07:28:16;;;;;;;50.55;6.07;;;;;;;22.37;54.44;99453.09;4926580;29;20574;-87
2023/09/06 07:30:55;;;;;;;20.10;5.80;;;;;;;22.16;54.20;99437.06;4928579;29;20067;-88
2023/09/06 07:33:21;;;;;;;43.78;5.47;;;;;;;22.55;53.54;99451.22;4907201;29;20131;-86
2023/09/06 07:35:47;;;;;;;36.58;6.65;;;;;;;22.46;53.88;99442.41;4905942;29;20148;-89
2023/09/06 07:38:13;;;;;;;22.20;6.20;;;;;;;22.35;54.04;99428.44;4893260;29;20081;-86
2023/09/06 07:40:39;;;;;;;19.33;5.53;;;;;;;22.59;54.03;99446.47;4921779;29;20048;-86
2023/09/06 07:43:05;;;;;;;13.68;4.90;;;;;;;22.12;54.23;99409.19;4922309;29;20047;-86
2023/09/06 07:45:33;;;;;;;16.30;4.68;;;;;;;22.56;54.33;99436.09;4908444;29;20066;-87
2023/09/06 07:48:01;;;;;;;16.60;4.90;;;;;;;22.66;53.63;99432.56;4906706;29;20047;-86
2023/09/06 07:50:48;;;;;;;15.57;5.63;;;;;;;22.36;53.39;99384.66;4946044;28;20055;-87
2023/09/06 07:53:14;;;;;;;21.20;5.57;;;;;;;22.49;54.42;99425.72;4921696;29;20098;-86
2023/09/06 07:55:44;;;;;;;18.80;5.50;;;;;;;22.75;53.75;99418.25;4923316;29;20135;-86
2023/09/06 07:58:20;;;;;;;16.45;5.22;;;;;;;23.04;52.72;99421.94;4907064;29;20176;-88
2023/09/06 08:00:48;;;;;;;13.95;5.07;;;;;;;23.16;52.51;99431.94;4920514;29;20288;-87
2023/09/06 08:03:14;;;;;;;11.02;4.72;;;;;;;22.66;52.90;99376.03;4919079;29;20069;-87
2023/09/06 08:05:41;;;;;;;32.13;5.03;;;;;;;22.92;52.64;99441.81;4903787;29;20059;-87
2023/09/06 08:08:09;;;;;;;18.77;4.82;;;;;;;22.71;53.62;99434.16;4918147;29;20454;-87
2023/09/06 08:10:42;;;;;;;18.13;4.95;;;;;;;22.83;53.25;99422.66;4924155;29;20051;-87
2023/09/06 08:13:11;;;;;;;11.23;4.72;;;;;;;22.82;53.83;99425.84;4918958;29;20044;-86
2023/09/06 08:15:44;;;;;;;13.52;4.75;;;;;;;22.88;53.72;99433.44;4918375;29;20476;-86
2023/09/06 08:18:10;;;;;;;25.30;5.20;;;;;;;22.90;53.51;99417.09;4918827;29;20052;-88
2023/09/06 08:20:36;;;;;;;17.38;4.78;;;;;;;22.44;53.44;99400.22;4926966;29;20096;-87
2023/09/06 08:23:04;;;;;;;24.50;4.78;;;;;;;22.73;54.02;99421.44;4923463;29;20052;-87
2023/09/06 08:25:30;;;;;;;25.42;5.10;;;;;;;22.98;53.66;99423.56;4926654;29;20058;-88
2023/09/06 08:29:00;;;;;;;25.73;5.15;;;;;;;22.83;53.37;99435.81;4923863;29;20099;-88
2023/09/06 08:31:26;;;;;;;15.10;5.20;;;;;;;22.57;53.53;99404.25;4952097;28;20051;-87
2023/09/06 08:33:53;;;;;;;20.73;4.70;;;;;;;22.71;53.98;99434.97;4933484;28;20051;-87
2023/09/06 08:36:22;;;;;;;;;;;;;;;22.60;54.13;99434.13;4948933;28;20051;-88
2023/09/06 08:38:57;;;;;;;18.05;4.75;;;;;;;22.41;54.62;99410.13;4963285;28;20307;-87
2023/09/06 08:41:26;;;;;;;24.13;5.22;;;;;;;22.57;54.65;99412.59;4976646;28;20114;-87
2023/09/06 08:43:54;;;;;;;31.05;5.07;;;;;;;22.69;54.16;99445.72;4978209;28;20046;-89
2023/09/06 08:46:47;;;;;;;32.13;4.50;;;;;;;22.89;53.40;99418.31;4933539;28;20070;-89
2023/09/06 08:49:14;;;;;;;24.88;5.30;;;;;;;22.70;51.98;99427.78;4979022;28;20141;-89
2023/09/06 08:51:42;;;;;;;14.77;4.80;;;;;;;22.44;52.27;99411.34;4947541;28;20066;-89
2023/09/06 08:54:09;;;;;;;16.13;4.50;;;;;;;22.41;53.01;99406.56;4968591;28;20047;-87
2023/09/06 08:56:44;;;;;;;22.55;4.55;;;;;;;22.77;52.62;99435.38;4943860;28;20138;-86
2023/09/06 08:59:11;;;;;;;16.10;4.47;;;;;;;22.68;51.23;99427.41;4962039;28;20501;-87
2023/09/06 09:04:29;;;;;;;26.55;4.68;;;;;;;22.61;49.87;99421.78;4947717;28;20038;-89
2023/09/06 09:07:21;;;;;;;18.45;5.18;;;;;;;23.02;48.93;99449.44;4980207;28;20066;-88
2023/09/06 09:10:09;;;;;;;14.02;4.40;;;;;;;22.98;48.55;99438.28;4965105;28;20046;-89
2023/09/06 09:12:39;;;;;;;22.25;4.15;;;;;;;22.65;50.00;99380.81;4921679;29;20051;-87
2023/09/06 09:15:09;;;;;;;27.77;5.43;;;;;;;22.93;49.72;99437.84;4906729;29;20044;-92
2023/09/06 09:17:39;;;;;;;20.83;4.80;;;;;;;22.46;49.55;99414.56;4887586;29;20104;-87
2023/09/06 09:23:55;;;;;;;14.35;3.97;;;;;;;22.81;48.65;99455.69;4901913;23;20053;-89
2023/09/06 09:26:46;;;;;;;11.77;3.95;;;;;;;22.69;47.96;99444.91;4965290;28;20074;-91
2023/09/06 09:29:25;;;;;;;55.53;5.97;;;;;;;22.73;48.08;99460.44;4956876;28;20137;-92
2023/09/06 09:31:51;;;;;;;26.85;4.20;;;;;;;22.76;49.20;99442.16;4940090;28;20046;-93
2023/09/06 09:34:36;;;;;;;27.35;4.45;;;;;;;22.83;49.47;99446.94;4956994;28;20042;-91
2023/09/06 09:37:12;;;;;;;15.88;4.07;;;;;;;22.73;49.22;99454.09;4974512;28;20042;-90
2023/09/06 09:39:47;;;;;;;27.70;4.25;;;;;;;22.29;49.14;99460.63;4989034;28;20047;-90
2023/09/06 09:42:14;;;;;;;12.40;3.65;;;;;;;22.16;48.38;99471.28;5005355;28;20053;-92
2023/09/06 09:45:03;;;;;;;25.13;4.13;;;;;;;21.98;49.67;99461.94;5007814;28;20049;-89
2023/09/06 09:47:32;;;;;;;15.02;4.05;;;;;;;21.87;50.35;99419.34;4957409;29;20043;-90
2023/09/06 09:50:17;;;;;;;12.60;3.90;;;;;;;21.96;49.00;99428.94;4969013;29;20047;-89
2023/09/06 09:52:47;;;;;;;13.73;3.58;;;;;;;22.13;49.68;99462.88;4983305;28;20126;-94
2023/09/06 09:55:46;;;;;;;10.50;3.63;;;;;;;22.13;50.22;99452.53;4960356;28;20084;-90
2023/09/06 09:59:11;;;;;;;7.32;3.47;;;;;;;22.07;50.07;99501.41;4958885;28;20078;-88
2023/09/06 10:01:42;;;;;;;11.38;3.72;;;;;;;22.04;51.40;99477.13;5013227;28;20065;-90
2023/09/06 10:05:12;;;;;;;6.88;3.53;;;;;;;22.21;49.68;99456.97;4976384;28;20046;-92
2023/09/06 10:07:42;;;;;;;14.93;3.72;;;;;;;22.35;50.27;99464.66;5006456;28;20046;-94
2023/09/06 10:10:24;;;;;;;12.63;3.72;;;;;;;22.21;49.23;99428.34;5007282;28;20050;-91
2023/09/06 10:12:52;;;;;;;13.55;3.88;;;;;;;22.26;49.34;99475.31;4968564;28;20049;-86
2023/09/06 10:15:25;;;;;;;15.25;3.60;;;;;;;22.07;50.48;99468.00;4987149;28;20038;-89
2023/09/06 10:17:55;;;;;;;9.70;3.60;;;;;;;21.96;50.89;99442.06;4956778;28;20077;-87
2023/09/06 10:20:34;;;;;;;8.55;3.47;;;;;;;21.75;50.17;99412.09;4968593;28;20531;-87
2023/09/06 10:23:04;;;;;;;5.25;3.28;;;;;;;22.10;50.77;99467.22;4931891;29;20052;-89
2023/09/06 10:25:32;;;;;;;5.28;3.42;;;;;;;21.92;49.90;99457.94;4880335;29;20055;-90
2023/09/06 10:27:59;;;;;;;12.30;3.00;;;;;;;21.69;49.25;99470.09;4880175;29;20059;-89
2023/09/06 10:30:43;;;;;;;10.18;3.35;;;;;;;21.59;50.13;99465.22;4881996;29;20120;-90
2023/09/06 10:33:32;;;;;;;10.88;3.85;;;;;;;21.42;50.66;99468.63;4910696;29;20054;-92
2023/09/06 10:36:19;;;;;;;9.45;3.97;;;;;;;21.28;51.14;99470.03;4912223;29;20044;-88
2023/09/06 10:39:59;;;;;;;7.03;3.53;;;;;;;20.93;52.37;99453.00;4934315;29;20034;-93
2023/09/06 10:43:26;;;;;;;23.90;4.03;;;;;;;21.09;53.12;99482.16;4926079;29;20079;-90
2023/09/06 10:46:14;;;;;;;21.88;4.15;;;;;;;21.01;53.42;99480.47;4921899;29;20031;-90
2023/09/06 10:49:14;;;;;;;10.13;3.70;;;;;;;21.16;52.25;99463.94;4941612;28;20062;-88
2023/09/06 10:52:03;;;;;;;17.38;3.63;;;;;;;21.28;50.96;99481.16;4957065;28;20043;-89
2023/09/06 10:54:38;;;;;;;9.20;3.47;;;;;;;21.06;50.69;99455.13;4917456;29;20056;-91
2023/09/06 10:57:23;;;;;;;8.00;3.70;;;;;;;21.35;50.83;99472.94;4915513;29;20099;-88
2023/09/06 10:59:57;;;;;;;6.55;3.38;;;;;;;21.30;48.48;99464.91;4941278;28;20050;-91
2023/09/06 11:02:27;;;;;;;6.20;3.20;;;;;;;21.46;49.18;99455.56;4931745;28;20050;-92
2023/09/06 11:05:39;;;;;;;4.50;2.92;;;;;;;21.71;48.57;99475.25;4941897;29;20043;-89
2023/09/06 11:08:08;;;;;;;11.55;3.22;;;;;;;21.66;49.27;99453.38;4956800;29;20863;-90
2023/09/06 11:10:37;;;;;;;5.55;3.40;;;;;;;21.20;47.63;99398.88;4926819;29;20051;-92
2023/09/06 11:13:14;;;;;;;7.38;3.47;;;;;;;21.64;47.80;99450.16;4910101;29;20039;-89
2023/09/06 11:15:43;;;;;;;15.82;3.70;;;;;;;21.77;47.63;99443.13;4959908;29;20050;-88
2023/09/06 11:18:15;;;;;;;16.90;4.10;;;;;;;21.98;46.27;99453.59;4943869;28;20062;-88
2023/09/06 11:20:47;;;;;;;13.02;3.70;;;;;;;21.78;46.15;99466.97;4948701;29;20051;-87
2023/09/06 11:23:16;;;;;;;12.23;3.83;;;;;;;21.79;47.93;99468.59;4943258;29;20142;-89
2023/09/06 11:25:42;;;;;;;15.38;4.03;;;;;;;21.91;47.78;99476.63;4916110;29;20050;-89
2023/09/06 11:28:19;;;;;;;15.98;3.88;;;;;;;21.83;46.97;99443.56;4955472;29;20392;-91
2023/09/06 11:30:47;;;;;;;;;;;;;;;22.08;47.07;99468.78;4914657;29;20219;-89
2023/09/06 11:33:30;;;;;;;6.72;3.30;;;;;;;21.87;46.31;99431.25;4961748;29;19929;-92
2023/09/06 11:35:58;;;;;;;11.15;3.50;;;;;;;22.16;46.70;99468.50;4961751;29;20050;-90
2023/09/06 11:38:35;;;;;;;11.75;4.18;;;;;;;21.91;47.09;99428.50;4909451;29;20098;-88
2023/09/06 11:41:28;;;;;;;5.85;3.85;;;;;;;22.09;46.96;99476.78;4947747;29;20043;-88
2023/09/06 11:43:58;;;;;;;8.38;3.65;;;;;;;21.75;47.09;99454.63;4962639;28;20098;-92
2023/09/06 11:46:25;;;;;;;6.72;3.38;;;;;;;21.77;49.07;99459.81;4912095;29;20113;-93
2023/09/06 11:48:53;;;;;;;20.60;3.92;;;;;;;22.28;46.35;99473.75;4945141;29;20043;-89
2023/09/06 11:51:47;;;;;;;13.40;3.72;;;;;;;22.52;44.96;99482.66;4943390;29;20053;-87
2023/09/06 11:54:17;;;;;;;9.88;3.78;;;;;;;21.70;46.12;99416.03;4930275;29;20038;-88
2023/09/06 11:56:47;;;;;;;9.48;3.20;;;;;;;21.76;45.92;99461.00;4947888;29;20043;-91
2023/09/06 11:59:14;;;;;;;11.02;3.20;;;;;;;21.76;45.91;99466.56;4947068;29;20039;-88
2023/09/06 12:01:59;;;;;;;33.42;3.92;;;;;;;21.66;48.29;99445.81;4929717;29;20070;-86
2023/09/06 12:13:17;;;;;;;20.85;3.75;;;;;;;22.19;45.73;99478.84;4923365;29;20050;-87
2023/09/06 12:15:44;;;;;;;14.10;3.10;;;;;;;22.01;44.43;99444.47;4927572;29;20043;-91
2023/09/06 12:18:12;;;;;;;15.68;3.53;;;;;;;22.39;44.87;99468.25;5052492;23;20132;-89
2023/09/06 12:20:38;;;;;;;10.85;3.17;;;;;;;22.34;44.16;99462.22;5001892;28;20042;-91
2023/09/06 12:23:05;;;;;;;51.05;4.57;;;;;;;22.55;44.08;99461.53;4986415;28;20113;-92
2023/09/06 12:25:32;;;;;;;13.13;3.78;;;;;;;22.70;44.90;99464.00;4952809;28;20050;-91
2023/09/06 12:27:58;;;;;;;8.45;3.03;;;;;;;22.72;44.85;99447.72;4968425;28;20528;-92
2023/09/06 12:30:24;;;;;;;10.07;3.35;;;;;;;22.76;42.97;99475.59;4988823;28;20046;-95
2023/09/06 12:32:53;;;;;;;16.08;3.15;;;;;;;22.73;43.03;99443.72;5001517;28;20038;-93
2023/09/06 12:35:20;;;;;;;10.30;3.13;;;;;;;22.51;42.90;99408.59;5001366;28;20049;-90
2023/09/06 12:37:46;;;;;;;9.27;3.95;;;;;;;22.86;43.77;99448.97;5000539;28;20157;-92
2023/09/06 12:40:15;;;;;;;12.55;3.13;;;;;;;22.92;43.45;99423.09;4987973;28;20125;-92
2023/09/06 12:42:48;;;;;;;8.77;2.83;;;;;;;23.05;45.61;99437.50;4975638;28;20459;-90
2023/09/06 12:45:27;;;;;;;8.68;3.00;;;;;;;23.19;42.11;99445.09;4955929;28;20046;-92
2023/09/06 12:47:58;;;;;;;9.32;3.28;;;;;;;23.01;43.67;99417.16;4953390;28;20041;-88
2023/09/06 12:50:32;;;;;;;15.02;3.25;;;;;;;22.64;42.20;99450.84;4953603;28;20062;-87
2023/09/06 12:53:10;;;;;;;11.35;2.72;;;;;;;22.43;42.60;99457.13;4951229;28;20141;-90
2023/09/06 12:55:46;;;;;;;15.77;3.25;;;;;;;22.13;43.45;99418.31;4987137;28;20133;-87
2023/09/06 12:58:13;;;;;;;10.88;2.80;;;;;;;22.04;43.17;99440.94;4985316;28;20038;-91
2023/09/06 13:00:43;;;;;;;5.15;2.80;;;;;;;21.98;43.20;99461.94;5004415;28;20046;-87
2023/09/06 13:03:11;;;;;;;16.70;2.97;;;;;;;21.62;42.97;99444.97;4994894;28;20048;-93
2023/09/06 13:05:41;;;;;;;9.57;2.97;;;;;;;21.63;43.43;99448.56;5020719;28;20040;-89
2023/09/06 13:08:10;;;;;;;10.82;2.50;;;;;;;21.66;42.68;99456.94;5006754;28;20073;-92
2023/09/06 13:10:36;;;;;;;9.38;3.00;;;;;;;21.76;42.66;99428.41;4956054;28;20117;-89
2023/09/06 13:13:09;;;;;;;7.57;2.90;;;;;;;21.84;42.06;99415.34;4984944;28;20053;-91
2023/09/06 13:15:35;;;;;;;11.65;2.95;;;;;;;22.08;41.92;99441.75;5023377;28;20034;-89
2023/09/06 13:18:04;;;;;;;10.80;3.10;;;;;;;22.25;42.58;99455.03;5002552;28;20188;-91
2023/09/06 13:20:33;;;;;;;9.90;2.97;;;;;;;22.28;42.17;99456.22;4983044;28;20061;-91
2023/09/06 13:22:59;;;;;;;17.80;3.35;;;;;;;22.25;42.76;99435.53;4969823;28;20427;-89
2023/09/06 13:25:54;;;;;;;10.40;2.70;;;;;;;22.25;41.95;99449.47;4966544;28;20038;-92
2023/09/06 13:28:21;;;;;;;9.82;2.60;;;;;;;22.21;43.27;99442.25;4962739;28;20133;-89
2023/09/06 13:30:47;;;;;;;6.95;3.25;;;;;;;22.09;42.73;99418.31;4947307;28;20034;-93
2023/09/06 13:33:13;;;;;;;12.50;3.08;;;;;;;21.98;43.41;99421.00;4967633;28;20038;-90
2023/09/06 13:35:43;;;;;;;11.05;2.80;;;;;;;21.90;42.71;99430.50;4982534;28;20038;-93
2023/09/06 13:38:27;;;;;;;9.38;3.00;;;;;;;21.69;43.42;99431.13;5000037;28;20060;-86
2023/09/06 13:40:53;;;;;;;11.68;3.15;;;;;;;21.62;44.61;99442.19;4980650;28;20046;-89
2023/09/06 13:43:20;;;;;;;9.88;2.97;;;;;;;21.45;43.99;99435.28;4978716;28;20092;-89
2023/09/06 13:45:47;;;;;;;5.93;2.90;;;;;;;21.58;44.04;99458.03;4957419;28;20042;-91
2023/09/06 13:48:15;;;;;;;8.63;2.72;;;;;;;21.66;44.39;99459.72;4942942;28;20499;-90
2023/09/06 13:50:41;;;;;;;15.38;3.20;;;;;;;21.34;43.62;99429.63;4986565;28;20057;-89
2023/09/06 14:05:49;;;;;;;11.52;3.38;;;;;;;21.39;43.72;99469.38;5055662;23;20054;-87
2023/09/06 15:12:32;;;;;;;34.38;3.67;;;;;;;20.21;42.67;99562.25;4986457;28;20035;-94
2023/09/06 15:16:12;;;;;;;28.60;3.92;;;;;;;20.00;41.94;99565.47;4891648;29;20139;-91
2023/09/06 15:19:26;;;;;;;91.68;6.65;;;;;;;19.18;42.52;99501.75;4868559;29;20053;-91
2023/09/06 15:26:31;;;;;;;60.03;5.15;;;;;;;18.95;40.88;99514.75;4885765;29;20057;-90
2023/09/06 15:29:32;;;;;;;87.43;5.80;;;;;;;19.31;40.81;99610.50;4866751;29;20079;-87
2023/09/06 15:36:12;;;;;;;18.90;3.47;;;;;;;19.19;40.37;99599.56;4873914;29;20589;-87
2023/09/06 15:42:40;;;;;;;33.13;4.10;;;;;;;19.08;35.58;99632.59;4880440;29;20049;-89
2023/09/06 15:48:42;;;;;;;79.40;5.68;;;;;;;19.47;43.31;99652.84;4870973;29;20081;-86
2023/09/06 15:51:12;;;;;;;35.08;3.80;;;;;;;19.34;35.97;99633.94;4869526;29;20093;-86
2023/09/06 15:53:38;;;;;;;36.58;4.47;;;;;;;19.40;39.69;99624.97;4933837;29;20110;-87
2023/09/06 15:59:04;;;;;;;24.27;2.85;;;;;;;18.90;33.62;99623.06;4962964;28;20062;-85
2023/09/06 16:02:04;;;;;;;39.17;3.45;;;;;;;18.76;34.47;99676.16;4964420;28;20069;-87
2023/09/06 16:04:42;;;;;;;29.35;3.78;;;;;;;18.15;35.57;99627.59;4909146;29;20135;-87
2023/09/06 16:07:11;;;;;;;28.23;3.17;;;;;;;18.26;36.39;99661.06;4978796;28;20041;-87
2023/09/06 16:09:41;;;;;;;18.30;2.92;;;;;;;18.46;37.08;99692.41;4973092;28;20059;-87
2023/09/06 16:12:22;;;;;;;;;;;;;;;;;;;;;
2023/09/06 16:22:22;;;;;;;23.05;2.50;;;;;;;17.54;39.15;99667.38;5006154;28;20463;-87
2023/09/06 16:24:49;;;;;;;20.85;2.90;;;;;;;17.60;39.43;99695.56;4984619;28;20154;-87
2023/09/06 16:27:15;;;;;;;;;;;;;;;17.80;40.20;99743.59;4972711;28;20050;-88
2023/09/06 16:29:45;;;;;;;23.10;3.67;;;;;;;17.44;39.43;99705.75;4992130;28;19921;-87
2023/09/06 16:32:27;;;;;;;25.73;3.03;;;;;;;17.52;39.42;99713.94;4955039;28;20061;-87
2023/09/06 16:34:53;;;;;;;38.33;4.32;;;;;;;17.54;39.62;99716.31;4965324;28;20044;-90
2023/09/06 16:37:38;;;;;;;14.40;3.03;;;;;;;17.13;39.40;99685.91;4996656;28;20116;-87
2023/09/06 16:40:10;;;;;;;36.77;3.30;;;;;;;17.07;39.40;99673.47;4995428;28;20101;-87
2023/09/06 16:42:51;;;;;;;25.85;3.15;;;;;;;17.18;39.65;99731.00;4947731;28;20047;-88
2023/09/06 16:45:20;;;;;;;32.97;3.72;;;;;;;17.24;39.61;99737.91;4946854;28;20397;-87
2023/09/06 16:47:47;;;;;;;11.38;2.60;;;;;;;17.35;40.23;99759.22;4986559;28;20125;-88
2023/09/06 16:50:16;;;;;;;17.60;4.32;;;;;;;16.96;40.06;99726.78;4967009;28;20119;-87
2023/09/06 16:52:44;;;;;;;32.50;3.75;;;;;;;16.89;39.75;99716.31;4999834;28;20831;-86
2023/09/06 16:56:09;;;;;;;27.50;2.90;;;;;;;17.14;38.93;99797.22;4998219;28;20042;-87